sensor_id;sensor_type;location;lat;lon;timestamp;temperature;humidity
5675;DHT22;2860;54.284;10.158;2023-04-20T00:01:58;7.50;99.90
5675;DHT22;2860;54.284;10.158;2023-04-20T00:04:27;7.40;99.90
5675;DHT22;2860;54.284;10.158;2023-04-20T00:06:54;7.40;99.90
5675;DHT22;2860;54.284;10.158;2023-04-20T00:09:21;7.30;99.90
5675;DHT22;2860;54.284;10.158;2023-04-20T00:11:47;7.30;99.90
5675;DHT22;2860;54.284;10.158;2023-04-20T00:14:14;7.30;99.90
5675;DHT22;2860;54.284;10.158;2023-04-20T00:16:40;7.30;99.90
5675;DHT22;2860;54.284;10.158;2023-04-20T00:19:05;7.30;99.90
5675;DHT22;2860;54.284;10.158;2023-04-20T00:21:32;7.30;99.90
5675;DHT22;2860;54.284;10.158;2023-04-20T00:23:57;7.30;99.90
5675;DHT22;2860;54.284;10.158;2023-04-20T00:26:23;7.30;99.90
5675;DHT22;2860;54.284;10.158;2023-04-20T00:28:50;7.30;99.90
5675;DHT22;2860;54.284;10.158;2023-04-20T00:31:16;7.30;99.90
5675;DHT22;2860;54.284;10.158;2023-04-20T00:33:41;7.30;99.90
5675;DHT22;2860;54.284;10.158;2023-04-20T00:36:07;7.30;99.90
5675;DHT22;2860;54.284;10.158;2023-04-20T00:38:33;7.30;99.90
5675;DHT22;2860;54.284;10.158;2023-04-20T00:40:58;7.30;99.90
5675;DHT22;2860;54.284;10.158;2023-04-20T00:43:24;7.30;99.90
5675;DHT22;2860;54.284;10.158;2023-04-20T00:45:49;7.40;99.90
5675;DHT22;2860;54.284;10.158;2023-04-20T00:48:17;7.40;99.90
5675;DHT22;2860;54.284;10.158;2023-04-20T00:50:44;7.40;99.90
5675;DHT22;2860;54.284;10.158;2023-04-20T00:53:10;7.40;99.90
5675;DHT22;2860;54.284;10.158;2023-04-20T00:55:36;7.50;99.90
5675;DHT22;2860;54.284;10.158;2023-04-20T00:58:02;7.40;99.90
5675;DHT22;2860;54.284;10.158;2023-04-20T01:00:28;7.40;99.90
5675;DHT22;2860;54.284;10.158;2023-04-20T01:02:54;7.40;99.90
5675;DHT22;2860;54.284;10.158;2023-04-20T01:05:20;7.40;99.90
5675;DHT22;2860;54.284;10.158;2023-04-20T01:07:46;7.30;99.90
5675;DHT22;2860;54.284;10.158;2023-04-20T01:10:12;7.20;99.90
5675;DHT22;2860;54.284;10.158;2023-04-20T01:12:37;7.20;99.90
5675;DHT22;2860;54.284;10.158;2023-04-20T01:15:04;7.20;99.90
5675;DHT22;2860;54.284;10.158;2023-04-20T01:17:33;7.10;99.90
5675;DHT22;2860;54.284;10.158;2023-04-20T01:19:59;7.10;99.90
5675;DHT22;2860;54.284;10.158;2023-04-20T01:22:25;7.00;99.90
5675;DHT22;2860;54.284;10.158;2023-04-20T01:24:51;7.00;99.90
5675;DHT22;2860;54.284;10.158;2023-04-20T01:27:17;7.00;99.90
5675;DHT22;2860;54.284;10.158;2023-04-20T01:29:43;6.90;99.90
5675;DHT22;2860;54.284;10.158;2023-04-20T01:32:09;6.90;99.90
5675;DHT22;2860;54.284;10.158;2023-04-20T01:34:35;6.80;99.90
5675;DHT22;2860;54.284;10.158;2023-04-20T01:37:01;6.80;99.90
5675;DHT22;2860;54.284;10.158;2023-04-20T01:39:27;6.70;99.90
5675;DHT22;2860;54.284;10.158;2023-04-20T01:41:53;6.70;99.90
5675;DHT22;2860;54.284;10.158;2023-04-20T01:44:18;6.70;99.90
5675;DHT22;2860;54.284;10.158;2023-04-20T01:46:44;6.70;99.90
5675;DHT22;2860;54.284;10.158;2023-04-20T01:49:09;6.60;99.90
5675;DHT22;2860;54.284;10.158;2023-04-20T01:51:35;6.60;99.90
5675;DHT22;2860;54.284;10.158;2023-04-20T01:54:01;6.60;99.90
5675;DHT22;2860;54.284;10.158;2023-04-20T01:56:27;6.60;99.90
5675;DHT22;2860;54.284;10.158;2023-04-20T01:58:53;6.60;99.90
5675;DHT22;2860;54.284;10.158;2023-04-20T02:01:19;6.60;99.90
5675;DHT22;2860;54.284;10.158;2023-04-20T02:03:45;6.70;99.90
5675;DHT22;2860;54.284;10.158;2023-04-20T02:06:10;6.60;99.90
5675;DHT22;2860;54.284;10.158;2023-04-20T02:08:36;6.60;99.90
5675;DHT22;2860;54.284;10.158;2023-04-20T02:11:02;6.50;99.90
5675;DHT22;2860;54.284;10.158;2023-04-20T02:13:27;6.50;99.90
5675;DHT22;2860;54.284;10.158;2023-04-20T02:15:53;6.50;99.90
5675;DHT22;2860;54.284;10.158;2023-04-20T02:18:18;6.40;99.90
5675;DHT22;2860;54.284;10.158;2023-04-20T02:20:44;6.40;99.90
5675;DHT22;2860;54.284;10.158;2023-04-20T02:23:10;6.40;99.90
5675;DHT22;2860;54.284;10.158;2023-04-20T02:25:36;6.30;99.90
5675;DHT22;2860;54.284;10.158;2023-04-20T02:28:02;6.30;99.90
5675;DHT22;2860;54.284;10.158;2023-04-20T02:30:27;6.30;99.90
5675;DHT22;2860;54.284;10.158;2023-04-20T02:32:53;6.30;99.90
5675;DHT22;2860;54.284;10.158;2023-04-20T02:35:18;6.30;99.90
5675;DHT22;2860;54.284;10.158;2023-04-20T02:37:45;6.30;99.90
5675;DHT22;2860;54.284;10.158;2023-04-20T02:40:11;6.20;99.90
5675;DHT22;2860;54.284;10.158;2023-04-20T02:42:38;6.20;99.90
5675;DHT22;2860;54.284;10.158;2023-04-20T02:45:04;6.10;99.90
5675;DHT22;2860;54.284;10.158;2023-04-20T02:47:29;6.10;99.90
5675;DHT22;2860;54.284;10.158;2023-04-20T02:49:55;6.10;99.90
5675;DHT22;2860;54.284;10.158;2023-04-20T02:52:20;6.10;99.90
5675;DHT22;2860;54.284;10.158;2023-04-20T02:54:46;6.10;99.90
5675;DHT22;2860;54.284;10.158;2023-04-20T02:57:12;6.00;99.90
5675;DHT22;2860;54.284;10.158;2023-04-20T02:59:37;6.10;99.90
5675;DHT22;2860;54.284;10.158;2023-04-20T03:02:03;6.00;99.90
5675;DHT22;2860;54.284;10.158;2023-04-20T03:04:29;6.00;99.90
5675;DHT22;2860;54.284;10.158;2023-04-20T03:06:55;6.00;99.90
5675;DHT22;2860;54.284;10.158;2023-04-20T03:09:22;6.00;99.90
5675;DHT22;2860;54.284;10.158;2023-04-20T03:11:48;6.00;99.90
5675;DHT22;2860;54.284;10.158;2023-04-20T03:14:13;6.00;99.90
5675;DHT22;2860;54.284;10.158;2023-04-20T03:16:39;6.00;99.90
5675;DHT22;2860;54.284;10.158;2023-04-20T03:19:05;6.00;99.90
5675;DHT22;2860;54.284;10.158;2023-04-20T03:21:31;6.00;99.90
5675;DHT22;2860;54.284;10.158;2023-04-20T03:23:57;6.00;99.90
5675;DHT22;2860;54.284;10.158;2023-04-20T03:26:23;6.00;99.90
5675;DHT22;2860;54.284;10.158;2023-04-20T03:28:49;6.00;99.90
5675;DHT22;2860;54.284;10.158;2023-04-20T03:31:15;6.00;99.90
5675;DHT22;2860;54.284;10.158;2023-04-20T03:33:40;6.10;99.90
5675;DHT22;2860;54.284;10.158;2023-04-20T03:36:06;6.10;99.90
5675;DHT22;2860;54.284;10.158;2023-04-20T03:38:32;6.10;99.90
5675;DHT22;2860;54.284;10.158;2023-04-20T03:40:57;6.10;99.90
5675;DHT22;2860;54.284;10.158;2023-04-20T03:43:23;6.10;99.90
5675;DHT22;2860;54.284;10.158;2023-04-20T03:45:48;6.20;99.90
5675;DHT22;2860;54.284;10.158;2023-04-20T03:48:14;6.20;99.90
5675;DHT22;2860;54.284;10.158;2023-04-20T03:50:39;6.20;99.90
5675;DHT22;2860;54.284;10.158;2023-04-20T03:53:05;6.30;99.90
5675;DHT22;2860;54.284;10.158;2023-04-20T03:55:30;6.30;99.90
5675;DHT22;2860;54.284;10.158;2023-04-20T03:57:56;6.30;99.90
5675;DHT22;2860;54.284;10.158;2023-04-20T04:00:21;6.20;99.90
5675;DHT22;2860;54.284;10.158;2023-04-20T04:02:47;6.30;99.90
5675;DHT22;2860;54.284;10.158;2023-04-20T04:05:12;6.30;99.90
5675;DHT22;2860;54.284;10.158;2023-04-20T04:07:38;6.30;99.90
5675;DHT22;2860;54.284;10.158;2023-04-20T04:10:03;6.30;99.90
5675;DHT22;2860;54.284;10.158;2023-04-20T04:12:30;6.40;99.90
5675;DHT22;2860;54.284;10.158;2023-04-20T04:14:56;6.40;99.90
5675;DHT22;2860;54.284;10.158;2023-04-20T04:17:21;6.40;99.90
5675;DHT22;2860;54.284;10.158;2023-04-20T04:19:47;6.40;99.90
5675;DHT22;2860;54.284;10.158;2023-04-20T04:22:12;6.40;99.90
5675;DHT22;2860;54.284;10.158;2023-04-20T04:24:38;6.40;99.90
5675;DHT22;2860;54.284;10.158;2023-04-20T04:27:06;6.40;99.90
5675;DHT22;2860;54.284;10.158;2023-04-20T04:29:32;6.50;99.90
5675;DHT22;2860;54.284;10.158;2023-04-20T04:32:01;6.50;99.90
5675;DHT22;2860;54.284;10.158;2023-04-20T04:34:27;6.50;99.90
5675;DHT22;2860;54.284;10.158;2023-04-20T04:36:54;6.50;99.90
5675;DHT22;2860;54.284;10.158;2023-04-20T04:39:19;6.50;99.90
5675;DHT22;2860;54.284;10.158;2023-04-20T04:41:45;6.50;99.90
5675;DHT22;2860;54.284;10.158;2023-04-20T04:44:10;6.40;99.90
5675;DHT22;2860;54.284;10.158;2023-04-20T04:46:36;6.40;99.90
5675;DHT22;2860;54.284;10.158;2023-04-20T04:49:01;6.50;99.90
5675;DHT22;2860;54.284;10.158;2023-04-20T04:51:28;6.40;99.90
5675;DHT22;2860;54.284;10.158;2023-04-20T04:53:54;6.50;99.90
5675;DHT22;2860;54.284;10.158;2023-04-20T04:56:21;6.50;99.90
5675;DHT22;2860;54.284;10.158;2023-04-20T04:58:47;6.50;99.90
5675;DHT22;2860;54.284;10.158;2023-04-20T05:01:13;6.60;99.90
5675;DHT22;2860;54.284;10.158;2023-04-20T05:03:38;6.60;99.90
5675;DHT22;2860;54.284;10.158;2023-04-20T05:06:04;6.50;99.90
5675;DHT22;2860;54.284;10.158;2023-04-20T05:08:29;6.60;99.90
5675;DHT22;2860;54.284;10.158;2023-04-20T05:10:56;6.60;99.90
5675;DHT22;2860;54.284;10.158;2023-04-20T05:13:22;6.70;99.90
5675;DHT22;2860;54.284;10.158;2023-04-20T05:15:47;6.70;99.90
5675;DHT22;2860;54.284;10.158;2023-04-20T05:18:13;6.70;99.90
5675;DHT22;2860;54.284;10.158;2023-04-20T05:20:38;6.80;99.90
5675;DHT22;2860;54.284;10.158;2023-04-20T05:23:04;6.80;99.90
5675;DHT22;2860;54.284;10.158;2023-04-20T05:25:30;6.80;99.90
5675;DHT22;2860;54.284;10.158;2023-04-20T05:27:57;6.80;99.90
5675;DHT22;2860;54.284;10.158;2023-04-20T05:30:22;6.80;99.90
5675;DHT22;2860;54.284;10.158;2023-04-20T05:32:48;6.80;99.90
5675;DHT22;2860;54.284;10.158;2023-04-20T05:35:14;6.80;99.90
5675;DHT22;2860;54.284;10.158;2023-04-20T05:37:40;6.80;99.90
5675;DHT22;2860;54.284;10.158;2023-04-20T05:40:06;6.80;99.90
5675;DHT22;2860;54.284;10.158;2023-04-20T05:42:32;6.80;99.90
5675;DHT22;2860;54.284;10.158;2023-04-20T05:44:57;6.80;99.90
5675;DHT22;2860;54.284;10.158;2023-04-20T05:47:23;6.90;99.90
5675;DHT22;2860;54.284;10.158;2023-04-20T05:49:48;7.00;99.90
5675;DHT22;2860;54.284;10.158;2023-04-20T05:52:14;7.10;99.90
5675;DHT22;2860;54.284;10.158;2023-04-20T05:54:40;7.10;99.90
5675;DHT22;2860;54.284;10.158;2023-04-20T05:57:05;7.10;99.90
5675;DHT22;2860;54.284;10.158;2023-04-20T05:59:31;7.10;99.90
5675;DHT22;2860;54.284;10.158;2023-04-20T06:01:56;7.10;99.90
5675;DHT22;2860;54.284;10.158;2023-04-20T06:04:22;7.10;99.90
5675;DHT22;2860;54.284;10.158;2023-04-20T06:06:47;7.30;99.90
5675;DHT22;2860;54.284;10.158;2023-04-20T06:09:13;7.30;99.90
5675;DHT22;2860;54.284;10.158;2023-04-20T06:11:39;7.30;99.90
5675;DHT22;2860;54.284;10.158;2023-04-20T06:14:04;7.40;99.90
5675;DHT22;2860;54.284;10.158;2023-04-20T06:16:30;7.50;99.90
5675;DHT22;2860;54.284;10.158;2023-04-20T06:18:55;7.50;99.90
5675;DHT22;2860;54.284;10.158;2023-04-20T06:21:21;7.50;99.90
5675;DHT22;2860;54.284;10.158;2023-04-20T06:23:48;7.50;99.90
5675;DHT22;2860;54.284;10.158;2023-04-20T06:26:14;7.40;99.90
5675;DHT22;2860;54.284;10.158;2023-04-20T06:28:39;7.40;99.90
5675;DHT22;2860;54.284;10.158;2023-04-20T06:31:05;7.40;99.90
5675;DHT22;2860;54.284;10.158;2023-04-20T06:33:31;7.50;99.90
5675;DHT22;2860;54.284;10.158;2023-04-20T06:35:56;7.70;99.90
5675;DHT22;2860;54.284;10.158;2023-04-20T06:38:23;7.70;99.90
5675;DHT22;2860;54.284;10.158;2023-04-20T06:40:50;7.70;99.90
5675;DHT22;2860;54.284;10.158;2023-04-20T06:43:15;7.60;99.90
5675;DHT22;2860;54.284;10.158;2023-04-20T06:45:41;7.60;99.90
5675;DHT22;2860;54.284;10.158;2023-04-20T06:48:06;7.60;99.90
5675;DHT22;2860;54.284;10.158;2023-04-20T06:50:32;7.60;99.90
5675;DHT22;2860;54.284;10.158;2023-04-20T06:52:58;7.60;99.90
5675;DHT22;2860;54.284;10.158;2023-04-20T06:55:23;7.50;99.90
5675;DHT22;2860;54.284;10.158;2023-04-20T06:57:49;7.50;99.90
5675;DHT22;2860;54.284;10.158;2023-04-20T07:00:15;7.50;99.90
5675;DHT22;2860;54.284;10.158;2023-04-20T07:02:45;7.50;99.90
5675;DHT22;2860;54.284;10.158;2023-04-20T07:05:12;7.50;99.90
5675;DHT22;2860;54.284;10.158;2023-04-20T07:07:37;7.50;99.90
5675;DHT22;2860;54.284;10.158;2023-04-20T07:10:03;7.50;99.90
5675;DHT22;2860;54.284;10.158;2023-04-20T07:12:29;7.70;99.90
5675;DHT22;2860;54.284;10.158;2023-04-20T07:14:54;7.80;99.90
5675;DHT22;2860;54.284;10.158;2023-04-20T07:17:20;8.00;99.90
5675;DHT22;2860;54.284;10.158;2023-04-20T07:19:46;8.10;99.90
5675;DHT22;2860;54.284;10.158;2023-04-20T07:22:11;8.10;99.90
5675;DHT22;2860;54.284;10.158;2023-04-20T07:24:36;8.10;99.90
5675;DHT22;2860;54.284;10.158;2023-04-20T07:27:02;8.10;99.90
5675;DHT22;2860;54.284;10.158;2023-04-20T07:29:28;8.00;99.90
5675;DHT22;2860;54.284;10.158;2023-04-20T07:31:53;8.00;99.90
5675;DHT22;2860;54.284;10.158;2023-04-20T07:34:19;8.10;99.90
5675;DHT22;2860;54.284;10.158;2023-04-20T07:36:44;8.00;99.90
5675;DHT22;2860;54.284;10.158;2023-04-20T07:39:10;8.00;99.90
5675;DHT22;2860;54.284;10.158;2023-04-20T07:41:35;7.90;99.90
5675;DHT22;2860;54.284;10.158;2023-04-20T07:44:01;7.80;99.90
5675;DHT22;2860;54.284;10.158;2023-04-20T07:46:26;7.70;99.90
5675;DHT22;2860;54.284;10.158;2023-04-20T07:48:53;7.70;99.90
5675;DHT22;2860;54.284;10.158;2023-04-20T07:51:18;7.80;99.90
5675;DHT22;2860;54.284;10.158;2023-04-20T07:53:44;7.80;99.90
5675;DHT22;2860;54.284;10.158;2023-04-20T07:56:09;7.80;99.90
5675;DHT22;2860;54.284;10.158;2023-04-20T07:58:35;7.70;99.90
5675;DHT22;2860;54.284;10.158;2023-04-20T08:01:03;7.60;99.90
5675;DHT22;2860;54.284;10.158;2023-04-20T08:03:28;7.50;99.90
5675;DHT22;2860;54.284;10.158;2023-04-20T08:05:54;7.50;99.90
5675;DHT22;2860;54.284;10.158;2023-04-20T08:08:20;7.50;99.90
5675;DHT22;2860;54.284;10.158;2023-04-20T08:10:45;7.50;99.90
5675;DHT22;2860;54.284;10.158;2023-04-20T08:13:11;7.50;99.90
5675;DHT22;2860;54.284;10.158;2023-04-20T08:15:36;7.40;99.90
5675;DHT22;2860;54.284;10.158;2023-04-20T08:18:02;7.40;99.90
5675;DHT22;2860;54.284;10.158;2023-04-20T08:20:27;7.50;99.90
5675;DHT22;2860;54.284;10.158;2023-04-20T08:22:53;7.40;99.90
5675;DHT22;2860;54.284;10.158;2023-04-20T08:25:18;7.40;99.90
5675;DHT22;2860;54.284;10.158;2023-04-20T08:27:44;7.40;99.90
5675;DHT22;2860;54.284;10.158;2023-04-20T08:30:10;7.50;99.90
5675;DHT22;2860;54.284;10.158;2023-04-20T08:32:35;7.50;99.90
5675;DHT22;2860;54.284;10.158;2023-04-20T08:35:01;7.40;99.90
5675;DHT22;2860;54.284;10.158;2023-04-20T08:37:26;7.40;99.90
5675;DHT22;2860;54.284;10.158;2023-04-20T08:39:52;7.30;99.90
5675;DHT22;2860;54.284;10.158;2023-04-20T08:42:18;7.30;99.90
5675;DHT22;2860;54.284;10.158;2023-04-20T08:44:43;7.20;99.90
5675;DHT22;2860;54.284;10.158;2023-04-20T08:47:09;7.30;99.90
5675;DHT22;2860;54.284;10.158;2023-04-20T08:49:38;7.30;99.90
5675;DHT22;2860;54.284;10.158;2023-04-20T08:52:04;7.30;99.90
5675;DHT22;2860;54.284;10.158;2023-04-20T08:54:31;7.30;99.90
5675;DHT22;2860;54.284;10.158;2023-04-20T08:56:56;7.40;99.90
5675;DHT22;2860;54.284;10.158;2023-04-20T08:59:23;7.40;99.90
5675;DHT22;2860;54.284;10.158;2023-04-20T09:01:48;7.40;99.90
5675;DHT22;2860;54.284;10.158;2023-04-20T09:04:24;7.40;99.90
5675;DHT22;2860;54.284;10.158;2023-04-20T09:06:54;7.40;99.90
5675;DHT22;2860;54.284;10.158;2023-04-20T09:09:23;7.40;99.90
5675;DHT22;2860;54.284;10.158;2023-04-20T09:12:02;7.40;99.90
5675;DHT22;2860;54.284;10.158;2023-04-20T09:14:29;7.40;99.90
5675;DHT22;2860;54.284;10.158;2023-04-20T09:16:56;7.40;99.90
5675;DHT22;2860;54.284;10.158;2023-04-20T09:19:27;7.50;99.90
5675;DHT22;2860;54.284;10.158;2023-04-20T09:21:54;7.60;99.90
5675;DHT22;2860;54.284;10.158;2023-04-20T09:24:20;7.60;99.90
5675;DHT22;2860;54.284;10.158;2023-04-20T09:26:46;7.70;99.90
5675;DHT22;2860;54.284;10.158;2023-04-20T09:29:20;7.90;99.90
5675;DHT22;2860;54.284;10.158;2023-04-20T09:31:47;8.20;99.90
5675;DHT22;2860;54.284;10.158;2023-04-20T09:34:12;8.40;99.90
5675;DHT22;2860;54.284;10.158;2023-04-20T09:36:41;8.70;99.90
5675;DHT22;2860;54.284;10.158;2023-04-20T09:39:12;8.90;99.90
5675;DHT22;2860;54.284;10.158;2023-04-20T09:41:39;9.00;99.90
5675;DHT22;2860;54.284;10.158;2023-04-20T09:44:06;9.10;99.90
5675;DHT22;2860;54.284;10.158;2023-04-20T09:46:34;9.20;99.90
5675;DHT22;2860;54.284;10.158;2023-04-20T09:49:02;9.20;99.90
5675;DHT22;2860;54.284;10.158;2023-04-20T09:51:29;9.20;99.90
5675;DHT22;2860;54.284;10.158;2023-04-20T09:53:57;9.30;99.90
5675;DHT22;2860;54.284;10.158;2023-04-20T09:56:24;9.30;99.90
5675;DHT22;2860;54.284;10.158;2023-04-20T09:58:51;9.40;99.90
5675;DHT22;2860;54.284;10.158;2023-04-20T10:01:18;9.50;99.90
5675;DHT22;2860;54.284;10.158;2023-04-20T10:03:44;9.60;99.90
5675;DHT22;2860;54.284;10.158;2023-04-20T10:06:35;10.00;99.90
5675;DHT22;2860;54.284;10.158;2023-04-20T10:09:03;10.50;99.90
5675;DHT22;2860;54.284;10.158;2023-04-20T10:11:39;10.90;99.90
5675;DHT22;2860;54.284;10.158;2023-04-20T10:14:24;11.00;99.90
5675;DHT22;2860;54.284;10.158;2023-04-20T10:17:04;11.30;99.90
5675;DHT22;2860;54.284;10.158;2023-04-20T10:19:43;11.50;99.90
5675;DHT22;2860;54.284;10.158;2023-04-20T10:22:10;11.60;99.90
5675;DHT22;2860;54.284;10.158;2023-04-20T10:24:36;11.40;99.90
5675;DHT22;2860;54.284;10.158;2023-04-20T10:27:03;11.20;99.90
5675;DHT22;2860;54.284;10.158;2023-04-20T10:29:29;11.00;99.90
5675;DHT22;2860;54.284;10.158;2023-04-20T10:31:56;10.80;99.90
5675;DHT22;2860;54.284;10.158;2023-04-20T10:34:34;10.70;99.90
5675;DHT22;2860;54.284;10.158;2023-04-20T10:37:07;10.60;99.90
5675;DHT22;2860;54.284;10.158;2023-04-20T10:39:34;10.50;99.90
5675;DHT22;2860;54.284;10.158;2023-04-20T10:41:59;10.50;99.90
5675;DHT22;2860;54.284;10.158;2023-04-20T10:44:28;10.70;99.90
5675;DHT22;2860;54.284;10.158;2023-04-20T10:46:54;10.80;99.90
5675;DHT22;2860;54.284;10.158;2023-04-20T10:49:25;11.10;99.90
5675;DHT22;2860;54.284;10.158;2023-04-20T10:51:52;11.40;99.90
5675;DHT22;2860;54.284;10.158;2023-04-20T10:54:18;11.40;99.90
5675;DHT22;2860;54.284;10.158;2023-04-20T10:56:53;11.40;99.90
5675;DHT22;2860;54.284;10.158;2023-04-20T10:59:21;11.60;99.90
5675;DHT22;2860;54.284;10.158;2023-04-20T11:01:48;11.50;99.90
5675;DHT22;2860;54.284;10.158;2023-04-20T11:04:14;11.50;99.90
5675;DHT22;2860;54.284;10.158;2023-04-20T11:06:45;11.70;99.90
5675;DHT22;2860;54.284;10.158;2023-04-20T11:09:19;11.80;99.90
5675;DHT22;2860;54.284;10.158;2023-04-20T11:12:00;12.10;99.90
5675;DHT22;2860;54.284;10.158;2023-04-20T11:14:27;12.60;99.90
5675;DHT22;2860;54.284;10.158;2023-04-20T11:16:53;12.80;99.90
5675;DHT22;2860;54.284;10.158;2023-04-20T11:19:26;13.10;99.90
5675;DHT22;2860;54.284;10.158;2023-04-20T11:21:52;12.90;99.90
5675;DHT22;2860;54.284;10.158;2023-04-20T11:24:18;12.40;99.90
5675;DHT22;2860;54.284;10.158;2023-04-20T11:26:45;12.30;99.90
5675;DHT22;2860;54.284;10.158;2023-04-20T11:29:25;11.90;99.90
5675;DHT22;2860;54.284;10.158;2023-04-20T11:31:51;11.60;99.90
5675;DHT22;2860;54.284;10.158;2023-04-20T11:34:16;11.50;99.90
5675;DHT22;2860;54.284;10.158;2023-04-20T11:36:42;11.60;99.90
5675;DHT22;2860;54.284;10.158;2023-04-20T11:39:08;11.60;99.90
5675;DHT22;2860;54.284;10.158;2023-04-20T11:41:34;11.60;99.90
5675;DHT22;2860;54.284;10.158;2023-04-20T11:44:04;11.70;99.90
5675;DHT22;2860;54.284;10.158;2023-04-20T11:46:33;11.80;99.90
5675;DHT22;2860;54.284;10.158;2023-04-20T11:48:59;11.90;99.90
5675;DHT22;2860;54.284;10.158;2023-04-20T11:51:25;12.10;99.90
5675;DHT22;2860;54.284;10.158;2023-04-20T11:53:51;12.20;99.90
5675;DHT22;2860;54.284;10.158;2023-04-20T11:56:17;12.40;99.90
5675;DHT22;2860;54.284;10.158;2023-04-20T11:58:42;12.40;99.90
5675;DHT22;2860;54.284;10.158;2023-04-20T12:01:08;12.50;99.90
5675;DHT22;2860;54.284;10.158;2023-04-20T12:03:34;12.50;99.90
5675;DHT22;2860;54.284;10.158;2023-04-20T12:06:01;12.60;99.90
5675;DHT22;2860;54.284;10.158;2023-04-20T12:08:27;12.70;99.90
5675;DHT22;2860;54.284;10.158;2023-04-20T12:10:52;12.80;99.90
5675;DHT22;2860;54.284;10.158;2023-04-20T12:13:18;12.80;99.90
5675;DHT22;2860;54.284;10.158;2023-04-20T12:15:44;12.70;99.90
5675;DHT22;2860;54.284;10.158;2023-04-20T12:18:09;12.80;99.90
5675;DHT22;2860;54.284;10.158;2023-04-20T12:20:35;12.90;99.90
5675;DHT22;2860;54.284;10.158;2023-04-20T12:23:01;12.90;99.90
5675;DHT22;2860;54.284;10.158;2023-04-20T12:25:27;13.00;99.90
5675;DHT22;2860;54.284;10.158;2023-04-20T12:27:52;13.10;99.90
5675;DHT22;2860;54.284;10.158;2023-04-20T12:30:18;13.10;99.90
5675;DHT22;2860;54.284;10.158;2023-04-20T12:32:43;13.20;99.90
5675;DHT22;2860;54.284;10.158;2023-04-20T12:35:09;13.20;99.90
5675;DHT22;2860;54.284;10.158;2023-04-20T12:37:34;13.30;99.90
5675;DHT22;2860;54.284;10.158;2023-04-20T12:40:00;13.30;99.90
5675;DHT22;2860;54.284;10.158;2023-04-20T12:42:25;13.10;99.90
5675;DHT22;2860;54.284;10.158;2023-04-20T12:44:54;13.10;99.90
5675;DHT22;2860;54.284;10.158;2023-04-20T12:47:20;12.90;99.90
5675;DHT22;2860;54.284;10.158;2023-04-20T12:49:46;12.70;99.90
5675;DHT22;2860;54.284;10.158;2023-04-20T12:52:11;12.60;99.90
5675;DHT22;2860;54.284;10.158;2023-04-20T12:54:37;12.40;99.90
5675;DHT22;2860;54.284;10.158;2023-04-20T12:57:02;12.20;99.90
5675;DHT22;2860;54.284;10.158;2023-04-20T12:59:28;12.00;99.90
5675;DHT22;2860;54.284;10.158;2023-04-20T13:01:54;11.60;99.90
5675;DHT22;2860;54.284;10.158;2023-04-20T13:04:20;11.40;99.90
5675;DHT22;2860;54.284;10.158;2023-04-20T13:06:45;11.30;99.90
5675;DHT22;2860;54.284;10.158;2023-04-20T13:09:11;11.30;99.90
5675;DHT22;2860;54.284;10.158;2023-04-20T13:11:36;11.50;99.90
5675;DHT22;2860;54.284;10.158;2023-04-20T13:14:02;11.80;99.90
5675;DHT22;2860;54.284;10.158;2023-04-20T13:16:27;12.10;99.90
5675;DHT22;2860;54.284;10.158;2023-04-20T13:18:53;12.30;99.90
5675;DHT22;2860;54.284;10.158;2023-04-20T13:21:19;12.50;99.90
5675;DHT22;2860;54.284;10.158;2023-04-20T13:23:44;12.60;99.90
5675;DHT22;2860;54.284;10.158;2023-04-20T13:26:10;12.50;99.90
5675;DHT22;2860;54.284;10.158;2023-04-20T13:28:36;12.50;99.90
5675;DHT22;2860;54.284;10.158;2023-04-20T13:31:02;12.50;99.90
5675;DHT22;2860;54.284;10.158;2023-04-20T13:33:27;12.70;99.90
5675;DHT22;2860;54.284;10.158;2023-04-20T13:35:53;12.90;99.90
5675;DHT22;2860;54.284;10.158;2023-04-20T13:38:18;13.00;99.90
5675;DHT22;2860;54.284;10.158;2023-04-20T13:40:45;13.10;99.90
5675;DHT22;2860;54.284;10.158;2023-04-20T13:43:11;13.20;99.90
5675;DHT22;2860;54.284;10.158;2023-04-20T13:45:37;13.20;99.90
5675;DHT22;2860;54.284;10.158;2023-04-20T13:48:03;13.20;99.90
5675;DHT22;2860;54.284;10.158;2023-04-20T13:50:28;13.20;99.90
5675;DHT22;2860;54.284;10.158;2023-04-20T13:52:54;13.20;99.90
5675;DHT22;2860;54.284;10.158;2023-04-20T13:55:19;13.20;99.90
5675;DHT22;2860;54.284;10.158;2023-04-20T13:57:45;13.20;99.90
5675;DHT22;2860;54.284;10.158;2023-04-20T14:00:11;13.30;99.90
5675;DHT22;2860;54.284;10.158;2023-04-20T14:02:37;13.40;99.90
5675;DHT22;2860;54.284;10.158;2023-04-20T14:05:03;13.30;99.90
5675;DHT22;2860;54.284;10.158;2023-04-20T14:07:30;13.30;99.90
5675;DHT22;2860;54.284;10.158;2023-04-20T14:09:56;13.30;99.90
5675;DHT22;2860;54.284;10.158;2023-04-20T14:12:24;13.40;99.90
5675;DHT22;2860;54.284;10.158;2023-04-20T14:14:51;13.50;99.90
5675;DHT22;2860;54.284;10.158;2023-04-20T14:17:17;13.60;99.90
5675;DHT22;2860;54.284;10.158;2023-04-20T14:19:42;13.60;99.90
5675;DHT22;2860;54.284;10.158;2023-04-20T14:22:08;13.60;99.90
5675;DHT22;2860;54.284;10.158;2023-04-20T14:24:33;13.50;99.90
5675;DHT22;2860;54.284;10.158;2023-04-20T14:26:59;13.50;99.90
5675;DHT22;2860;54.284;10.158;2023-04-20T14:29:26;13.50;99.90
5675;DHT22;2860;54.284;10.158;2023-04-20T14:31:51;13.50;99.90
5675;DHT22;2860;54.284;10.158;2023-04-20T14:34:17;13.60;99.90
5675;DHT22;2860;54.284;10.158;2023-04-20T14:36:42;13.70;99.90
5675;DHT22;2860;54.284;10.158;2023-04-20T14:39:08;13.80;99.90
5675;DHT22;2860;54.284;10.158;2023-04-20T14:41:34;13.80;99.90
5675;DHT22;2860;54.284;10.158;2023-04-20T14:44:18;13.80;99.90
5675;DHT22;2860;54.284;10.158;2023-04-20T14:46:44;14.00;99.90
5675;DHT22;2860;54.284;10.158;2023-04-20T14:49:09;13.90;99.90
5675;DHT22;2860;54.284;10.158;2023-04-20T14:51:35;13.90;99.90
5675;DHT22;2860;54.284;10.158;2023-04-20T14:54:00;14.00;99.90
5675;DHT22;2860;54.284;10.158;2023-04-20T14:56:26;14.00;99.90
5675;DHT22;2860;54.284;10.158;2023-04-20T14:58:52;14.00;99.90
5675;DHT22;2860;54.284;10.158;2023-04-20T15:01:18;13.90;99.90
5675;DHT22;2860;54.284;10.158;2023-04-20T15:03:43;13.80;99.90
5675;DHT22;2860;54.284;10.158;2023-04-20T15:06:10;13.80;99.90
5675;DHT22;2860;54.284;10.158;2023-04-20T15:08:46;13.60;99.90
5675;DHT22;2860;54.284;10.158;2023-04-20T15:11:12;13.50;99.90
5675;DHT22;2860;54.284;10.158;2023-04-20T15:13:37;13.50;99.90
5675;DHT22;2860;54.284;10.158;2023-04-20T15:16:06;13.50;99.90
5675;DHT22;2860;54.284;10.158;2023-04-20T15:18:32;13.60;99.90
5675;DHT22;2860;54.284;10.158;2023-04-20T15:20:58;13.60;99.90
5675;DHT22;2860;54.284;10.158;2023-04-20T15:23:27;13.60;99.90
5675;DHT22;2860;54.284;10.158;2023-04-20T15:25:55;13.50;99.90
5675;DHT22;2860;54.284;10.158;2023-04-20T15:28:24;13.50;99.90
5675;DHT22;2860;54.284;10.158;2023-04-20T15:30:50;13.40;99.90
5675;DHT22;2860;54.284;10.158;2023-04-20T15:33:15;13.50;99.90
5675;DHT22;2860;54.284;10.158;2023-04-20T15:35:44;13.50;99.90
5675;DHT22;2860;54.284;10.158;2023-04-20T15:38:10;13.40;99.90
5675;DHT22;2860;54.284;10.158;2023-04-20T15:40:35;13.40;99.90
5675;DHT22;2860;54.284;10.158;2023-04-20T15:43:03;13.30;99.90
5675;DHT22;2860;54.284;10.158;2023-04-20T15:45:28;13.30;99.90
5675;DHT22;2860;54.284;10.158;2023-04-20T15:47:55;13.30;99.90
5675;DHT22;2860;54.284;10.158;2023-04-20T15:50:30;13.20;99.90